createdAt,value
2022-09-24T00:00:56.539Z,12.67
2022-09-24T00:03:25.075Z,12.68
2022-09-24T00:05:52.487Z,12.66
2022-09-24T00:08:19.517Z,12.68
2022-09-24T00:10:46.885Z,12.70
2022-09-24T00:13:14.835Z,12.73
2022-09-24T00:15:46.256Z,12.73
2022-09-24T00:18:13.185Z,12.67
2022-09-24T00:20:39.843Z,12.64
2022-09-24T00:23:06.857Z,12.58
2022-09-24T00:25:52.097Z,12.53
2022-09-24T00:28:18.621Z,12.51
2022-09-24T00:30:45.138Z,12.49
2022-09-24T00:33:11.699Z,12.47
2022-09-24T00:35:39.987Z,12.45
2022-09-24T00:38:06.546Z,12.43
2022-09-24T00:40:34.304Z,12.42
2022-09-24T00:43:00.838Z,12.41
2022-09-24T00:45:27.892Z,12.39
2022-09-24T00:47:54.344Z,12.38
2022-09-24T00:50:32.163Z,12.36
2022-09-24T00:53:01.048Z,12.36
2022-09-24T00:55:27.556Z,12.35
2022-09-24T00:57:58.224Z,12.34
2022-09-24T01:00:24.753Z,12.35
2022-09-24T01:02:54.185Z,12.36
2022-09-24T01:05:20.969Z,12.35
2022-09-24T01:07:48.666Z,12.35
2022-09-24T01:10:36.313Z,12.34
2022-09-24T01:13:10.672Z,12.33
2022-09-24T01:15:40.953Z,12.36
2022-09-24T01:18:11.555Z,12.39
2022-09-24T01:20:46.781Z,12.38
2022-09-24T01:23:59.319Z,12.38
2022-09-24T01:26:38.791Z,12.36
2022-09-24T01:29:25.128Z,12.33
2022-09-24T01:32:03.472Z,12.35
2022-09-24T01:34:35.712Z,12.38
2022-09-24T01:37:03.554Z,12.36
2022-09-24T01:39:29.928Z,12.37
2022-09-24T01:41:57.281Z,12.37
2022-09-24T01:44:23.684Z,12.38
2022-09-24T01:46:50.135Z,12.40
2022-09-24T01:49:16.642Z,12.38
2022-09-24T01:51:58.257Z,12.37
2022-09-24T01:54:57.156Z,12.34
2022-09-24T01:57:32.054Z,12.36
2022-09-24T02:00:10.840Z,12.34
2022-09-24T02:02:45.350Z,12.34
2022-09-24T02:05:24.746Z,12.31
2022-09-24T02:07:58.384Z,12.30
2022-09-24T02:10:24.753Z,12.32
2022-09-24T02:12:55.240Z,12.33
2022-09-24T02:15:32.226Z,12.31
2022-09-24T02:18:02.574Z,12.32
2022-09-24T02:20:28.945Z,12.32
2022-09-24T02:22:55.713Z,12.32
2022-09-24T02:25:25.761Z,12.31
2022-09-24T02:27:52.263Z,12.31
2022-09-24T02:30:18.625Z,12.30
2022-09-24T02:32:45.080Z,12.27
2022-09-24T02:35:12.002Z,12.25
2022-09-24T02:37:42.586Z,12.22
2022-09-24T02:40:11.234Z,12.21
2022-09-24T02:42:37.864Z,12.21
2022-09-24T02:45:05.242Z,12.21
2022-09-24T02:47:32.698Z,12.19
2022-09-24T02:49:59.199Z,12.18
2022-09-24T02:52:25.732Z,12.18
2022-09-24T02:54:52.145Z,12.18
2022-09-24T02:57:18.850Z,12.15
2022-09-24T02:59:45.900Z,12.14
2022-09-24T03:02:12.452Z,12.16
2022-09-24T03:04:39.156Z,12.17
2022-09-24T03:07:05.582Z,12.16
2022-09-24T03:09:31.950Z,12.15
2022-09-24T03:12:00.512Z,12.13
2022-09-24T03:14:27.515Z,12.13
2022-09-24T03:16:53.914Z,12.12
2022-09-24T03:19:20.328Z,12.09
2022-09-24T03:21:46.838Z,12.08
2022-09-24T03:24:13.230Z,12.07
2022-09-24T03:26:40.099Z,12.08
2022-09-24T03:29:06.477Z,12.14
2022-09-24T03:31:32.974Z,12.17
2022-09-24T03:33:59.536Z,12.18
2022-09-24T03:36:26.177Z,12.18
2022-09-24T03:38:55.338Z,12.14
2022-09-24T03:41:22.493Z,12.14
2022-09-24T03:43:48.952Z,12.12
2022-09-24T03:46:17.225Z,12.13
2022-09-24T03:48:44.042Z,12.12
2022-09-24T03:51:15.560Z,12.13
2022-09-24T03:53:41.989Z,12.12
2022-09-24T03:56:08.641Z,12.11
2022-09-24T03:58:38.762Z,12.07
2022-09-24T04:01:08.728Z,12.06
2022-09-24T04:03:36.183Z,12.05
2022-09-24T04:06:03.232Z,12.02
2022-09-24T04:08:30.261Z,12.01
2022-09-24T04:10:56.632Z,12.01
2022-09-24T04:13:23.055Z,11.99
2022-09-24T04:15:50.261Z,11.97
2022-09-24T04:18:16.931Z,11.97
2022-09-24T04:20:43.413Z,11.95
2022-09-24T04:23:10.530Z,11.95
2022-09-24T04:25:37.298Z,11.95
2022-09-24T04:28:05.683Z,11.95
2022-09-24T04:30:32.620Z,11.94
2022-09-24T04:33:00.899Z,11.95
2022-09-24T04:35:27.939Z,11.93
2022-09-24T04:37:54.312Z,11.95
2022-09-24T04:40:20.831Z,11.94
2022-09-24T04:42:47.542Z,11.94
2022-09-24T04:45:19.975Z,11.92
2022-09-24T04:47:53.442Z,11.92
2022-09-24T04:50:20.591Z,11.90
2022-09-24T04:52:47.004Z,11.90
2022-09-24T04:55:14.033Z,11.88
2022-09-24T04:57:41.244Z,11.87
2022-09-24T05:00:09.596Z,11.85
2022-09-24T05:02:36.119Z,11.85
2022-09-24T05:05:03.220Z,11.80
2022-09-24T05:07:29.639Z,11.77
2022-09-24T05:09:56.691Z,11.79
2022-09-24T05:12:23.063Z,11.78
2022-09-24T05:14:49.465Z,11.79
2022-09-24T05:17:15.906Z,11.79
2022-09-24T05:19:42.334Z,11.82
2022-09-24T05:22:08.726Z,11.82
2022-09-24T05:24:35.138Z,11.81
2022-09-24T05:27:10.675Z,11.81
2022-09-24T05:29:41.195Z,11.87
2022-09-24T05:32:08.802Z,11.90
2022-09-24T05:34:35.241Z,11.89
2022-09-24T05:37:02.147Z,11.89
2022-09-24T05:39:33.503Z,11.93
2022-09-24T05:42:00.997Z,11.94
2022-09-24T05:44:27.380Z,11.98
2022-09-24T05:46:53.863Z,12.05
2022-09-24T05:49:20.410Z,12.08
2022-09-24T05:51:50.391Z,12.06
2022-09-24T05:54:17.390Z,12.03
2022-09-24T05:56:43.888Z,12.04
2022-09-24T05:59:10.315Z,12.07
2022-09-24T06:01:36.794Z,12.09
2022-09-24T06:04:08.399Z,12.12
2022-09-24T06:06:35.498Z,12.14
2022-09-24T06:09:02.029Z,12.18
2022-09-24T06:11:39.644Z,12.22
2022-09-24T06:14:07.027Z,12.23
2022-09-24T06:16:33.903Z,12.23
2022-09-24T06:19:00.455Z,12.26
2022-09-24T06:21:26.886Z,12.27
2022-09-24T06:23:53.271Z,12.30
2022-09-24T06:26:19.676Z,12.34
2022-09-24T06:28:46.103Z,12.38
2022-09-24T06:31:12.668Z,12.44
2022-09-24T06:33:40.416Z,12.50
2022-09-24T06:36:07.135Z,12.58
2022-09-24T06:38:33.566Z,12.65
2022-09-24T06:41:00.912Z,12.67
2022-09-24T06:43:27.600Z,12.72
2022-09-24T06:45:57.419Z,12.74
2022-09-24T06:48:24.132Z,12.77
2022-09-24T06:50:51.470Z,12.73
2022-09-24T06:53:18.401Z,12.76
2022-09-24T06:55:46.849Z,12.71
2022-09-24T06:58:15.530Z,12.77
2022-09-24T07:00:43.082Z,12.83
2022-09-24T07:03:13.731Z,12.84
2022-09-24T07:05:43.546Z,12.89
2022-09-24T07:08:10.402Z,12.94
2022-09-24T07:10:38.050Z,12.94
2022-09-24T07:13:04.421Z,12.93
2022-09-24T07:15:30.849Z,12.93
2022-09-24T07:17:57.289Z,12.91
2022-09-24T07:20:24.886Z,13.00
2022-09-24T07:22:51.273Z,13.09
2022-09-24T07:25:17.720Z,13.13
2022-09-24T07:27:44.084Z,13.17
2022-09-24T07:30:11.438Z,13.19
2022-09-24T07:32:38.245Z,13.20
2022-09-24T07:35:05.155Z,13.24
2022-09-24T07:37:34.435Z,13.25
2022-09-24T07:40:01.020Z,13.29
2022-09-24T07:42:29.050Z,13.25
2022-09-24T07:44:56.550Z,13.30
2022-09-24T07:47:22.959Z,13.37
2022-09-24T07:49:49.341Z,13.36
2022-09-24T07:52:15.733Z,13.42
2022-09-24T07:54:42.243Z,13.41
2022-09-24T07:57:14.597Z,13.43
2022-09-24T07:59:41.194Z,13.49
2022-09-24T08:02:17.167Z,13.56
2022-09-24T08:04:44.196Z,13.55
2022-09-24T08:07:11.599Z,13.53
2022-09-24T08:09:38.244Z,13.61
2022-09-24T08:12:05.282Z,13.61
2022-09-24T08:14:31.846Z,13.64
2022-09-24T08:16:58.404Z,13.72
2022-09-24T08:19:24.871Z,13.76
2022-09-24T08:21:51.266Z,13.83
2022-09-24T08:24:17.647Z,13.90
2022-09-24T08:26:44.007Z,13.98
2022-09-24T08:29:10.714Z,13.99
2022-09-24T08:31:37.464Z,14.05
2022-09-24T08:34:03.921Z,14.10
2022-09-24T08:36:30.397Z,14.14
2022-09-24T08:38:56.808Z,14.22
2022-09-24T08:41:48.135Z,14.26
2022-09-24T08:44:38.743Z,14.32
2022-09-24T08:47:22.753Z,14.34
2022-09-24T08:49:52.911Z,14.38
2022-09-24T08:52:25.340Z,14.45
2022-09-24T08:54:52.015Z,14.43
2022-09-24T08:57:18.390Z,14.42
2022-09-24T08:59:47.004Z,14.53
2022-09-24T09:02:25.772Z,14.62
2022-09-24T09:04:54.059Z,14.60
2022-09-24T09:07:22.443Z,14.71
2022-09-24T09:10:03.599Z,14.73
2022-09-24T09:12:29.988Z,14.76
2022-09-24T09:15:05.572Z,14.88
2022-09-24T09:17:43.531Z,14.89
2022-09-24T09:20:21.427Z,14.98
2022-09-24T09:22:49.439Z,15.04
2022-09-24T09:25:19.670Z,15.13
2022-09-24T09:28:00.703Z,15.16
2022-09-24T09:30:27.329Z,15.19
2022-09-24T09:33:23.187Z,15.25
2022-09-24T09:36:20.679Z,15.39
2022-09-24T09:38:56.090Z,15.46
2022-09-24T09:41:47.295Z,15.47
2022-09-24T09:44:26.325Z,15.57
2022-09-24T09:47:04.213Z,15.61
2022-09-24T09:49:33.782Z,15.72
2022-09-24T09:52:00.692Z,15.79
2022-09-24T09:54:37.651Z,15.88
2022-09-24T09:57:04.139Z,15.97
2022-09-24T09:59:30.915Z,16.06
2022-09-24T10:01:57.606Z,16.20
2022-09-24T10:04:24.189Z,16.06
2022-09-24T10:06:50.614Z,16.08
2022-09-24T10:09:21.377Z,16.17
2022-09-24T10:11:48.169Z,16.30
2022-09-24T10:14:21.561Z,16.44
2022-09-24T10:16:52.841Z,16.53
2022-09-24T10:19:23.564Z,16.56
2022-09-24T10:21:50.559Z,16.62
2022-09-24T10:24:19.622Z,16.60
2022-09-24T10:26:46.239Z,16.67
2022-09-24T10:29:41.247Z,16.78
2022-09-24T10:32:14.935Z,16.86
2022-09-24T10:34:41.315Z,16.92
2022-09-24T10:37:15.427Z,17.05
2022-09-24T10:39:41.814Z,17.08
2022-09-24T10:42:30.366Z,17.08
2022-09-24T10:45:01.082Z,17.02
2022-09-24T10:47:28.169Z,17.00
2022-09-24T10:50:12.889Z,16.98
2022-09-24T10:53:00.307Z,16.97
2022-09-24T10:55:30.813Z,17.06
2022-09-24T10:58:02.991Z,17.02
2022-09-24T11:00:37.457Z,17.11
2022-09-24T11:03:03.869Z,17.23
2022-09-24T11:05:35.982Z,17.18
2022-09-24T11:08:12.320Z,17.09
2022-09-24T11:10:51.566Z,17.18
2022-09-24T11:13:40.378Z,17.33
2022-09-24T11:16:47.363Z,17.46
2022-09-24T11:19:25.090Z,17.57
2022-09-24T11:22:09.397Z,17.52
2022-09-24T11:24:48.041Z,17.50
2022-09-24T11:27:51.999Z,17.50
2022-09-24T11:30:19.699Z,17.49
2022-09-24T11:33:04.593Z,17.51
2022-09-24T11:36:10.164Z,17.69
2022-09-24T11:38:48.682Z,17.70
2022-09-24T11:41:59.755Z,17.54
2022-09-24T11:44:32.167Z,17.55
2022-09-24T11:47:13.791Z,17.60
2022-09-24T11:50:19.285Z,17.49
2022-09-24T11:52:52.582Z,17.39
2022-09-24T11:55:31.663Z,17.38
2022-09-24T11:58:14.542Z,17.40
2022-09-24T12:00:53.491Z,17.39
2022-09-24T12:03:26.457Z,17.33
2022-09-24T12:06:05.878Z,17.26
2022-09-24T12:08:56.665Z,17.22
2022-09-24T12:11:36.611Z,17.12
2022-09-24T12:14:07.395Z,17.11
2022-09-24T12:16:37.352Z,17.11
2022-09-24T12:19:24.692Z,17.04
2022-09-24T12:21:52.476Z,17.02
2022-09-24T12:24:25.092Z,16.96
2022-09-24T12:26:51.661Z,16.96
2022-09-24T12:29:54.543Z,16.89
2022-09-24T12:32:49.152Z,16.83
2022-09-24T12:35:47.288Z,16.83
2022-09-24T12:38:23.709Z,16.77
2022-09-24T12:40:50.226Z,16.74
2022-09-24T12:43:25.313Z,16.71
2022-09-24T12:45:59.542Z,16.59
2022-09-24T12:48:26.011Z,16.64
2022-09-24T12:50:59.626Z,16.59
2022-09-24T12:53:32.041Z,16.54
2022-09-24T12:55:59.583Z,16.54
2022-09-24T12:58:30.958Z,16.53
2022-09-24T13:01:06.592Z,16.51
2022-09-24T13:03:33.974Z,16.47
2022-09-24T13:06:00.459Z,16.47
2022-09-24T13:08:37.699Z,16.48
2022-09-24T13:11:06.420Z,16.48
2022-09-24T13:13:37.109Z,16.43
2022-09-24T13:16:05.682Z,16.43
2022-09-24T13:18:33.922Z,16.41
2022-09-24T13:21:08.113Z,16.41
2022-09-24T13:23:37.743Z,16.43
2022-09-24T13:26:06.368Z,16.43
2022-09-24T13:28:39.699Z,16.40
2022-09-24T13:31:25.368Z,16.37
2022-09-24T13:33:54.948Z,16.34
2022-09-24T13:36:33.585Z,16.35
2022-09-24T13:39:24.057Z,16.31
2022-09-24T13:42:23.270Z,16.25
2022-09-24T13:44:56.975Z,16.18
2022-09-24T13:47:31.715Z,16.10
2022-09-24T13:50:27.997Z,16.08
2022-09-24T13:53:04.544Z,16.06
2022-09-24T13:55:47.165Z,15.99
2022-09-24T13:58:32.693Z,15.92
2022-09-24T14:01:00.251Z,15.92
2022-09-24T14:03:28.742Z,15.88
2022-09-24T14:05:57.190Z,15.90
2022-09-24T14:08:24.173Z,15.82
2022-09-24T14:10:51.290Z,15.80
2022-09-24T14:13:24.668Z,15.85
2022-09-24T14:15:52.378Z,15.85
2022-09-24T14:18:19.293Z,15.87
2022-09-24T14:20:45.702Z,15.84
2022-09-24T14:23:20.173Z,15.78
2022-09-24T14:25:46.728Z,15.77
2022-09-24T14:28:13.226Z,15.73
2022-09-24T14:30:50.632Z,15.64
2022-09-24T14:33:17.969Z,15.59
2022-09-24T14:35:46.262Z,15.62
2022-09-24T14:38:20.219Z,15.49
2022-09-24T14:40:48.994Z,15.52
2022-09-24T14:43:57.539Z,15.42
2022-09-24T14:46:27.721Z,15.39
2022-09-24T14:49:20.461Z,15.32
2022-09-24T14:51:56.842Z,15.35
2022-09-24T14:54:40.212Z,15.36
2022-09-24T14:57:18.649Z,15.37
2022-09-24T14:59:45.537Z,15.40
2022-09-24T15:02:19.184Z,15.30
2022-09-24T15:04:47.111Z,15.28
2022-09-24T15:07:16.434Z,15.27
2022-09-24T15:09:43.674Z,15.32
2022-09-24T15:12:17.173Z,15.22
2022-09-24T15:14:52.301Z,15.17
2022-09-24T15:17:23.079Z,15.20
2022-09-24T15:19:54.203Z,15.17
2022-09-24T15:22:22.490Z,15.20
2022-09-24T15:24:49.272Z,15.16
2022-09-24T15:27:21.009Z,15.15
2022-09-24T15:29:47.451Z,15.10
2022-09-24T15:32:18.133Z,15.02
2022-09-24T15:34:44.934Z,15.04
2022-09-24T15:37:12.347Z,15.04
2022-09-24T15:39:38.929Z,15.02
2022-09-24T15:42:05.357Z,14.93
2022-09-24T15:44:34.183Z,14.89
2022-09-24T15:47:00.808Z,14.91
2022-09-24T15:49:27.341Z,14.84
2022-09-24T15:51:57.191Z,14.83
2022-09-24T15:54:24.816Z,14.85
2022-09-24T15:56:54.361Z,14.78
2022-09-24T15:59:21.378Z,14.72
2022-09-24T16:01:48.790Z,14.67
2022-09-24T16:04:15.402Z,14.62
2022-09-24T16:06:42.136Z,14.61
2022-09-24T16:09:08.667Z,14.63
2022-09-24T16:11:35.150Z,14.65
2022-09-24T16:14:01.599Z,14.62
2022-09-24T16:16:28.101Z,14.56
2022-09-24T16:18:54.582Z,14.52
2022-09-24T16:21:21.082Z,14.47
2022-09-24T16:23:47.449Z,14.45
2022-09-24T16:26:13.886Z,14.47
2022-09-24T16:28:40.259Z,14.42
2022-09-24T16:31:09.866Z,14.42
2022-09-24T16:33:39.611Z,14.38
2022-09-24T16:36:06.885Z,14.33
2022-09-24T16:38:36.972Z,14.29
2022-09-24T16:41:03.893Z,14.28
2022-09-24T16:43:30.285Z,14.27
2022-09-24T16:46:04.205Z,14.24
2022-09-24T16:48:31.109Z,14.25
2022-09-24T16:51:10.700Z,14.20
2022-09-24T16:53:37.432Z,14.20
2022-09-24T16:56:05.722Z,14.17
2022-09-24T16:58:32.854Z,14.20
2022-09-24T17:00:59.229Z,14.13
2022-09-24T17:03:25.650Z,14.11
2022-09-24T17:05:52.059Z,14.06
2022-09-24T17:08:18.461Z,13.99
2022-09-24T17:10:52.478Z,14.01
2022-09-24T17:13:22.140Z,14.02
2022-09-24T17:15:48.565Z,14.00
2022-09-24T17:18:15.024Z,13.94
2022-09-24T17:20:41.383Z,13.97
2022-09-24T17:23:07.815Z,13.92
2022-09-24T17:25:34.194Z,13.86
2022-09-24T17:28:02.069Z,13.84
2022-09-24T17:30:28.511Z,13.85
2022-09-24T17:32:54.942Z,13.82
2022-09-24T17:35:21.318Z,13.77
2022-09-24T17:37:47.689Z,13.79
2022-09-24T17:40:18.712Z,13.82
2022-09-24T17:42:49.431Z,13.79
2022-09-24T17:45:15.874Z,13.81
2022-09-24T17:47:57.516Z,13.83
2022-09-24T17:50:24.252Z,13.77
2022-09-24T17:52:50.746Z,13.77
2022-09-24T17:55:17.367Z,13.76
2022-09-24T17:57:43.736Z,13.76
2022-09-24T18:00:10.836Z,13.73
2022-09-24T18:02:37.347Z,13.72
2022-09-24T18:05:03.968Z,13.69
2022-09-24T18:07:30.339Z,13.67
2022-09-24T18:09:56.872Z,13.64
2022-09-24T18:12:23.374Z,13.60
2022-09-24T18:14:49.751Z,13.60
2022-09-24T18:17:16.120Z,13.62
2022-09-24T18:19:42.507Z,13.59
2022-09-24T18:22:09.168Z,13.60
2022-09-24T18:24:35.561Z,13.57
2022-09-24T18:27:01.949Z,13.59
2022-09-24T18:29:28.762Z,13.60
2022-09-24T18:31:55.150Z,13.56
2022-09-24T18:34:21.548Z,13.58
2022-09-24T18:36:48.007Z,13.58
2022-09-24T18:39:21.798Z,13.56
2022-09-24T18:41:50.443Z,13.55
2022-09-24T18:44:16.883Z,13.54
2022-09-24T18:46:43.392Z,13.57
2022-09-24T18:49:10.840Z,13.54
2022-09-24T18:51:37.602Z,13.55
2022-09-24T18:54:06.092Z,13.54
2022-09-24T18:56:32.763Z,13.50
2022-09-24T18:59:00.573Z,13.50
2022-09-24T19:01:27.569Z,13.50
2022-09-24T19:03:55.077Z,13.49
2022-09-24T19:06:21.540Z,13.47
2022-09-24T19:08:49.031Z,13.43
2022-09-24T19:11:16.201Z,13.47
2022-09-24T19:13:43.092Z,13.46
2022-09-24T19:16:12.037Z,13.41
2022-09-24T19:18:38.941Z,13.40
2022-09-24T19:21:06.555Z,13.38
2022-09-24T19:23:37.479Z,13.34
2022-09-24T19:26:04.185Z,13.29
2022-09-24T19:28:30.628Z,13.28
2022-09-24T19:30:57.079Z,13.28
2022-09-24T19:33:23.607Z,13.28
2022-09-24T19:35:57.883Z,13.24
2022-09-24T19:38:28.628Z,13.23
2022-09-24T19:40:59.346Z,13.19
2022-09-24T19:43:26.141Z,13.16
2022-09-24T19:45:58.073Z,13.12
2022-09-24T19:48:27.792Z,13.10
2022-09-24T19:50:55.005Z,13.11
2022-09-24T19:53:21.431Z,13.08
2022-09-24T19:55:47.852Z,13.09
2022-09-24T19:58:15.584Z,13.09
2022-09-24T20:00:43.063Z,13.11
2022-09-24T20:03:11.133Z,13.11
2022-09-24T20:05:38.288Z,13.10
2022-09-24T20:08:04.707Z,13.08
2022-09-24T20:10:31.353Z,13.07
2022-09-24T20:12:58.211Z,13.08
2022-09-24T20:15:24.725Z,13.10
2022-09-24T20:17:51.165Z,13.07
2022-09-24T20:20:17.971Z,13.07
2022-09-24T20:22:44.353Z,13.06
2022-09-24T20:25:12.836Z,13.01
2022-09-24T20:27:51.374Z,12.99
2022-09-24T20:30:21.286Z,12.99
2022-09-24T20:32:47.858Z,13.01
2022-09-24T20:35:15.710Z,12.99
2022-09-24T20:37:42.469Z,13.00
2022-09-24T20:40:09.415Z,13.01
2022-09-24T20:42:38.920Z,13.00
2022-09-24T20:45:08.634Z,12.95
2022-09-24T20:47:37.989Z,12.97
2022-09-24T20:50:04.998Z,13.00
2022-09-24T20:52:34.497Z,13.01
2022-09-24T20:55:00.997Z,13.03
2022-09-24T20:57:28.842Z,13.00
2022-09-24T20:59:56.139Z,12.97
2022-09-24T21:02:23.605Z,12.94
2022-09-24T21:04:50.069Z,12.94
2022-09-24T21:07:16.488Z,12.93
2022-09-24T21:09:42.878Z,12.91
2022-09-24T21:12:09.327Z,12.91
2022-09-24T21:14:35.809Z,12.91
2022-09-24T21:17:03.053Z,12.92
2022-09-24T21:19:29.549Z,12.90
2022-09-24T21:21:55.982Z,12.88
2022-09-24T21:24:25.175Z,12.88
2022-09-24T21:26:57.262Z,12.93
2022-09-24T21:29:23.683Z,12.95
2022-09-24T21:31:50.143Z,12.96
2022-09-24T21:34:19.677Z,12.95
2022-09-24T21:36:46.181Z,12.95
2022-09-24T21:39:20.603Z,12.97
2022-09-24T21:41:49.827Z,13.00
2022-09-24T21:44:17.645Z,12.95
2022-09-24T21:46:44.202Z,12.95
2022-09-24T21:49:11.164Z,13.01
2022-09-24T21:51:37.896Z,13.02
2022-09-24T21:54:06.208Z,12.98
2022-09-24T21:56:33.460Z,12.97
2022-09-24T21:58:59.908Z,13.03
2022-09-24T22:01:31.087Z,13.03
2022-09-24T22:03:59.114Z,13.01
2022-09-24T22:06:28.585Z,13.02
2022-09-24T22:09:03.373Z,13.00
2022-09-24T22:11:29.769Z,12.94
2022-09-24T22:14:00.916Z,12.96
2022-09-24T22:16:28.163Z,12.97
2022-09-24T22:18:54.716Z,13.00
2022-09-24T22:21:21.156Z,13.00
2022-09-24T22:23:47.539Z,13.00
2022-09-24T22:26:14.780Z,12.99
2022-09-24T22:28:41.874Z,12.99
2022-09-24T22:31:09.725Z,12.96
2022-09-24T22:33:54.688Z,12.95
2022-09-24T22:36:21.275Z,12.93
2022-09-24T22:38:50.582Z,12.91
2022-09-24T22:41:16.995Z,12.93
2022-09-24T22:43:43.367Z,12.93
2022-09-24T22:46:11.210Z,12.92
2022-09-24T22:48:37.735Z,12.94
2022-09-24T22:51:05.225Z,12.94
2022-09-24T22:53:35.570Z,12.96
2022-09-24T22:56:03.849Z,12.97
2022-09-24T22:58:30.847Z,12.97
2022-09-24T23:01:08.441Z,12.96
2022-09-24T23:03:35.851Z,12.95
2022-09-24T23:06:02.845Z,12.97
2022-09-24T23:08:33.131Z,12.96
2022-09-24T23:11:10.457Z,12.95
2022-09-24T23:13:38.115Z,12.93
2022-09-24T23:16:15.165Z,12.91
2022-09-24T23:18:42.495Z,12.96
2022-09-24T23:21:10.656Z,12.96
2022-09-24T23:23:37.317Z,12.93
2022-09-24T23:26:05.287Z,12.98
2022-09-24T23:28:32.223Z,12.97
2022-09-24T23:30:59.212Z,12.94
2022-09-24T23:33:25.704Z,12.90
2022-09-24T23:35:53.581Z,12.90
2022-09-24T23:38:20.148Z,12.90
2022-09-24T23:40:47.074Z,12.87
2022-09-24T23:43:13.625Z,12.90
2022-09-24T23:45:40.043Z,12.89
2022-09-24T23:48:06.493Z,12.87
2022-09-24T23:50:32.868Z,12.90
2022-09-24T23:52:59.254Z,12.92
2022-09-24T23:55:25.648Z,12.87
2022-09-24T23:57:52.033Z,12.89
